createdAt,value
2023-04-03T03:59:45.515Z,100493.19
2023-04-03T04:02:48.199Z,100493.19
2023-04-03T04:05:51.479Z,100494.87
2023-04-03T04:08:54.767Z,100491.75
2023-04-03T04:11:57.146Z,100491.19
2023-04-03T04:14:59.317Z,100494.03
2023-04-03T04:18:04.482Z,100498.41
2023-04-03T04:21:07.313Z,100498.37
2023-04-03T04:24:09.926Z,100495.03
2023-04-03T04:27:13.843Z,100495.84
2023-04-03T04:30:16.541Z,100499.22
2023-04-03T04:33:18.923Z,100499.06
2023-04-03T04:36:21.541Z,100506.69
2023-04-03T04:39:24.650Z,100504.47
2023-04-03T04:42:27.536Z,100507.66
2023-04-03T04:45:29.751Z,100504.59
2023-04-03T04:48:32.868Z,100507.50
2023-04-03T04:51:48.307Z,100510.97
2023-04-03T04:54:54.149Z,100514.34
2023-04-03T04:57:57.374Z,100516.97
2023-04-03T05:01:05.473Z,100519.06
2023-04-03T05:04:08.019Z,100513.12
2023-04-03T05:07:10.655Z,100522.41
2023-04-03T05:10:13.339Z,100519.03
2023-04-03T05:13:17.744Z,100518.63
2023-04-03T05:16:21.745Z,100521.09
2023-04-03T05:19:24.354Z,100524.78
2023-04-03T05:22:26.854Z,100528.13
2023-04-03T05:25:30.782Z,100521.19
2023-04-03T05:28:34.080Z,100516.94
2023-04-03T05:31:36.623Z,100523.62
2023-04-03T05:34:39.242Z,100514.13
2023-04-03T05:37:41.884Z,100523.75
2023-04-03T05:40:44.472Z,100511.19
2023-04-03T05:43:47.120Z,100524.16
2023-04-03T05:46:49.541Z,100532.97
2023-04-03T05:49:52.090Z,100541.72
2023-04-03T05:52:57.629Z,100535.22
2023-04-03T05:56:01.827Z,100547.56
2023-04-03T05:59:08.333Z,100551.22
2023-04-03T06:02:17.591Z,100550.97
2023-04-03T06:05:21.405Z,100558.69
2023-04-03T06:08:24.748Z,100550.50
2023-04-03T06:11:28.378Z,100558.53
2023-04-03T06:14:31.168Z,100556.47
2023-04-03T06:17:33.581Z,100557.78
2023-04-03T06:20:36.036Z,100563.41
2023-04-03T06:23:39.573Z,100563.22
2023-04-03T06:26:42.416Z,100574.22
2023-04-03T06:29:46.305Z,100562.94
2023-04-03T06:32:49.071Z,100565.72
2023-04-03T06:35:57.697Z,100571.69
2023-04-03T06:39:00.563Z,100561.75
2023-04-03T06:42:03.440Z,100574.81
2023-04-03T06:45:07.019Z,100563.66
2023-04-03T06:48:09.947Z,100574.88
2023-04-03T06:51:19.168Z,100574.41
2023-04-03T06:54:23.967Z,100582.94
2023-04-03T06:57:27.384Z,100584.78
2023-04-03T07:00:31.138Z,100587.41
2023-04-03T07:03:34.520Z,100584.41
2023-04-03T07:06:38.113Z,100588.50
2023-04-03T07:09:40.313Z,100592.25
2023-04-03T07:12:43.090Z,100593.25
2023-04-03T07:15:45.312Z,100592.47
2023-04-03T07:18:47.796Z,100601.56
2023-04-03T07:21:49.933Z,100599.72
2023-04-03T07:24:52.358Z,100604.06
2023-04-03T07:27:55.502Z,100604.88
2023-04-03T07:31:09.341Z,100604.62
2023-04-03T07:34:12.319Z,100606.78
2023-04-03T07:37:15.640Z,100607.06
2023-04-03T07:40:19.045Z,100597.13
2023-04-03T07:43:22.966Z,100608.06
2023-04-03T07:46:25.234Z,100621.41
2023-04-03T07:49:28.348Z,100613.94
2023-04-03T07:52:30.504Z,100614.75
2023-04-03T07:55:34.971Z,100618.75
2023-04-03T07:58:37.977Z,100620.56
2023-04-03T08:01:40.589Z,100621.84
2023-04-03T08:04:43.066Z,100616.94
2023-04-03T08:07:45.577Z,100618.31
2023-04-03T08:11:00.363Z,100630.47
2023-04-03T08:14:03.486Z,100623.59
2023-04-03T08:17:06.353Z,100629.78
2023-04-03T08:20:10.665Z,100626.84
2023-04-03T08:23:13.173Z,100632.72
2023-04-03T08:26:17.735Z,100631.69
2023-04-03T08:29:20.404Z,100626.84
2023-04-03T08:32:23.204Z,100636.44
2023-04-03T08:35:25.884Z,100634.59
2023-04-03T08:38:28.052Z,100637.22
2023-04-03T08:41:37.690Z,100632.22
2023-04-03T08:44:53.737Z,100633.81
2023-04-03T08:48:19.774Z,100635.62
2023-04-03T08:51:24.506Z,100637.72
2023-04-03T08:54:49.633Z,100632.22
2023-04-03T08:58:00.887Z,100636.44
2023-04-03T09:01:06.161Z,100630.91
2023-04-03T09:04:14.950Z,100627.78
2023-04-03T09:07:24.624Z,100638.28
2023-04-03T09:10:32.301Z,100636.81
2023-04-03T09:13:58.746Z,100630.47
2023-04-03T09:17:19.550Z,100634.88
2023-04-03T09:20:31.591Z,100640.56
2023-04-03T09:23:37.507Z,100640.75
2023-04-03T09:26:52.421Z,100637.13
2023-04-03T09:29:57.080Z,100643.09
2023-04-03T09:32:59.457Z,100636.09
2023-04-03T09:36:02.322Z,100643.34
2023-04-03T09:39:11.399Z,100646.03
2023-04-03T09:42:23.480Z,100648.31
2023-04-03T09:45:35.264Z,100644.22
2023-04-03T09:48:37.390Z,100636.28
2023-04-03T09:51:39.903Z,100642.34
2023-04-03T09:54:42.275Z,100634.72
2023-04-03T09:57:46.953Z,100629.50
2023-04-03T10:00:56.956Z,100624.09
2023-04-03T10:04:19.937Z,100633.72
2023-04-03T10:07:28.132Z,100631.34
2023-04-03T10:10:30.623Z,100628.53
2023-04-03T10:13:36.248Z,100630.84
2023-04-03T10:16:56.074Z,100642.38
2023-04-03T10:20:16.672Z,100629.38
2023-04-03T10:23:27.963Z,100630.03
2023-04-03T10:26:54.004Z,100627.56
2023-04-03T10:30:19.646Z,100630.78
2023-04-03T10:33:54.390Z,100634.81
2023-04-03T10:37:22.614Z,100634.34
2023-04-03T10:40:34.333Z,100631.97
2023-04-03T10:43:56.329Z,100628.75
2023-04-03T10:47:11.871Z,100622.03
2023-04-03T10:50:20.540Z,100624.97
2023-04-03T10:53:37.485Z,100621.38
2023-04-03T10:57:04.496Z,100628.13
2023-04-03T11:00:27.604Z,100620.34
2023-04-03T11:03:45.183Z,100613.37
2023-04-03T11:07:05.643Z,100620.47
2023-04-03T11:10:18.385Z,100618.06
2023-04-03T11:13:29.543Z,100617.75
2023-04-03T11:16:47.267Z,100620.03
2023-04-03T11:20:02.544Z,100622.31
2023-04-03T11:23:15.194Z,100609.28
2023-04-03T11:26:26.395Z,100607.53
2023-04-03T11:29:35.917Z,100595.12
2023-04-03T11:32:56.787Z,100605.19
2023-04-03T11:36:15.478Z,100594.62
2023-04-03T11:39:32.939Z,100587.59
2023-04-03T11:42:39.289Z,100576.37
2023-04-03T11:45:55.889Z,100591.47
2023-04-03T11:48:58.481Z,100590.63
2023-04-03T11:52:00.677Z,100585.63
2023-04-03T11:55:03.274Z,100589.13
2023-04-03T11:58:15.198Z,100590.50
2023-04-03T12:01:44.908Z,100588.47
2023-04-03T12:05:30.460Z,100594.19
2023-04-03T12:08:41.992Z,100586.37
2023-04-03T12:11:44.595Z,100575.25
2023-04-03T12:14:47.716Z,100572.69
2023-04-03T12:17:54.968Z,100579.84
2023-04-03T12:20:58.326Z,100576.66
2023-04-03T12:24:09.800Z,100581.66
2023-04-03T12:27:27.096Z,100572.22
2023-04-03T12:30:31.380Z,100570.06
2023-04-03T12:33:57.681Z,100562.63
2023-04-03T12:37:38.678Z,100565.53
2023-04-03T12:40:48.392Z,100567.13
2023-04-03T12:44:21.498Z,100572.16
2023-04-03T12:47:28.630Z,100567.91
2023-04-03T12:50:33.912Z,100555.69
2023-04-03T12:53:39.525Z,100566.66
2023-04-03T12:56:42.134Z,100559.25
2023-04-03T12:59:47.439Z,100560.94
2023-04-03T13:02:50.229Z,100562.81
2023-04-03T13:06:02.864Z,100549.75
2023-04-03T13:09:06.160Z,100548.06
2023-04-03T13:12:14.011Z,100538.47
2023-04-03T13:15:29.232Z,100537.00
2023-04-03T13:18:36.277Z,100538.25
2023-04-03T13:21:38.842Z,100535.81
2023-04-03T13:24:41.232Z,100527.53
2023-04-03T13:27:45.157Z,100532.37
2023-04-03T13:31:23.384Z,100526.69
2023-04-03T13:34:28.992Z,100530.06
2023-04-03T13:37:34.005Z,100530.44
2023-04-03T13:41:10.775Z,100519.53
2023-04-03T13:44:22.114Z,100526.09
2023-04-03T13:47:26.170Z,100526.47
2023-04-03T13:50:30.003Z,100529.72
2023-04-03T13:53:35.391Z,100526.31
2023-04-03T13:56:42.871Z,100520.16
2023-04-03T13:59:45.831Z,100514.19
2023-04-03T14:02:49.361Z,100510.47
2023-04-03T14:05:52.062Z,100510.19
2023-04-03T14:08:54.579Z,100506.81
2023-04-03T14:12:05.776Z,100508.06
2023-04-03T14:15:27.150Z,100507.66
2023-04-03T14:18:29.550Z,100500.78
2023-04-03T14:21:31.708Z,100498.22
2023-04-03T14:24:34.082Z,100493.16
2023-04-03T14:27:41.862Z,100497.53
2023-04-03T14:30:45.913Z,100495.22
2023-04-03T14:33:48.543Z,100498.28
2023-04-03T14:36:53.492Z,100497.38
2023-04-03T14:40:01.433Z,100489.00
2023-04-03T14:43:03.870Z,100494.91
2023-04-03T14:46:12.079Z,100499.31
2023-04-03T14:49:22.266Z,100501.09
2023-04-03T14:52:28.534Z,100500.38
2023-04-03T14:55:31.332Z,100507.19
2023-04-03T14:58:33.419Z,100511.47
2023-04-03T15:01:36.039Z,100509.78
2023-04-03T15:04:38.276Z,100505.06
2023-04-03T15:07:49.617Z,100511.56
2023-04-03T15:10:56.648Z,100498.13
2023-04-03T15:13:59.069Z,100503.03
2023-04-03T15:30:09.094Z,100501.16
2023-04-03T15:33:11.524Z,100516.19
2023-04-03T15:36:29.200Z,100500.97
2023-04-03T15:39:35.776Z,100503.72
2023-04-03T15:42:38.500Z,100508.63
2023-04-03T15:45:41.827Z,100506.06
2023-04-03T15:48:45.639Z,100506.06
2023-04-03T15:51:48.161Z,100506.00
